Theale, United Kingdom
Current Conditions -  °F | °C
As of 9:50 PM on Tuesday 21 Oct 2014 (Local Time) from EGUB Reporting Station
Clear Clear  
Wind Chill: 42°   Ceiling: Unl
Heat Index: 46°   Visibility: 6mi
Dew Point: 36°   Wind: 8mph
Humidity: 66%   Direction: 260°W
Pressure: 30.09"   Gusts: NA
Location:  51.44°N, 1.08°W
Report Text: EGUB 212050Z 26007KT CAVOK 08/02 Q1019 BLU NOSIG
Loading
Personal Weather Stations






























Interactive Weather Map New forecast layout! Learn more

10-Day Weather Forecast

Advertisements
Track Severe Weather on mobile